createdAt,value
2022-07-26T00:01:50.635Z,21.15
2022-07-26T00:04:18.454Z,21.13
2022-07-26T00:06:46.179Z,20.97
2022-07-26T00:09:14.032Z,21.00
2022-07-26T00:11:41.753Z,20.94
2022-07-26T00:14:10.159Z,20.89
2022-07-26T00:16:38.257Z,20.88
2022-07-26T00:19:10.150Z,20.89
2022-07-26T00:21:40.533Z,20.87
2022-07-26T00:24:09.436Z,20.83
2022-07-26T00:26:37.448Z,20.77
2022-07-26T00:29:06.303Z,20.76
2022-07-26T00:31:34.378Z,20.77
2022-07-26T00:34:01.988Z,20.76
2022-07-26T00:36:29.958Z,20.80
2022-07-26T00:38:57.604Z,20.80
2022-07-26T00:41:25.099Z,20.74
2022-07-26T00:43:58.114Z,20.73
2022-07-26T00:46:26.014Z,20.67
2022-07-26T00:48:54.255Z,20.59
2022-07-26T00:51:22.723Z,20.64
2022-07-26T00:53:50.625Z,20.64
2022-07-26T00:56:18.459Z,20.67
2022-07-26T00:58:46.018Z,20.69
2022-07-26T01:01:13.636Z,20.69
2022-07-26T01:03:42.008Z,20.73
2022-07-26T01:06:10.004Z,20.65
2022-07-26T01:08:37.728Z,20.66
2022-07-26T01:11:05.528Z,20.64
2022-07-26T01:13:35.414Z,20.64
2022-07-26T01:16:04.052Z,20.60
2022-07-26T01:18:31.770Z,20.60
2022-07-26T01:21:13.466Z,20.57
2022-07-26T01:23:43.723Z,20.56
2022-07-26T01:26:11.957Z,20.58
2022-07-26T01:28:41.307Z,20.57
2022-07-26T01:31:09.009Z,20.52
2022-07-26T01:33:36.629Z,20.55
2022-07-26T01:36:04.331Z,20.53
2022-07-26T01:38:31.897Z,20.52
2022-07-26T01:40:59.576Z,20.49
2022-07-26T01:43:27.137Z,20.43
2022-07-26T01:45:55.592Z,20.32
2022-07-26T01:48:23.354Z,20.32
2022-07-26T01:50:51.013Z,20.25
2022-07-26T01:53:18.628Z,20.12
2022-07-26T01:55:46.208Z,20.18
2022-07-26T01:58:14.058Z,20.16
2022-07-26T02:00:41.670Z,20.10
2022-07-26T02:03:09.608Z,20.12
2022-07-26T02:05:37.257Z,20.10
2022-07-26T02:08:05.280Z,20.09
2022-07-26T02:10:51.666Z,20.10
2022-07-26T02:13:19.288Z,20.13
2022-07-26T02:15:46.834Z,20.12
2022-07-26T02:18:14.688Z,20.13
2022-07-26T02:20:42.176Z,20.13
2022-07-26T02:23:09.821Z,20.15
2022-07-26T02:25:37.431Z,20.14
2022-07-26T02:28:05.296Z,20.19
2022-07-26T02:30:32.889Z,20.13
2022-07-26T02:33:01.257Z,20.12
2022-07-26T02:35:28.838Z,20.06
2022-07-26T02:38:00.908Z,20.05
2022-07-26T02:40:28.701Z,20.07
2022-07-26T02:42:56.226Z,20.02
2022-07-26T02:45:24.679Z,20.04
2022-07-26T02:47:54.942Z,20.07
2022-07-26T02:50:25.024Z,20.06
2022-07-26T02:52:54.048Z,20.09
2022-07-26T02:55:24.700Z,20.08
2022-07-26T02:57:52.767Z,19.96
2022-07-26T03:00:23.370Z,19.91
2022-07-26T03:02:51.643Z,19.99
2022-07-26T03:05:20.038Z,20.02
2022-07-26T03:07:48.047Z,20.07
2022-07-26T03:10:15.766Z,20.07
2022-07-26T03:12:44.584Z,20.08
2022-07-26T03:15:12.679Z,20.02
2022-07-26T03:17:40.313Z,19.95
2022-07-26T03:20:08.877Z,19.93
2022-07-26T03:22:36.476Z,19.91
2022-07-26T03:25:04.346Z,19.91
2022-07-26T03:27:31.913Z,19.92
2022-07-26T03:29:59.468Z,19.94
2022-07-26T03:32:27.413Z,19.97
2022-07-26T03:34:55.038Z,19.94
2022-07-26T03:37:23.414Z,19.93
2022-07-26T03:39:51.108Z,19.95
2022-07-26T03:42:18.787Z,19.91
2022-07-26T03:44:46.262Z,19.92
2022-07-26T03:47:13.838Z,19.88
2022-07-26T03:49:41.387Z,19.85
2022-07-26T03:52:10.989Z,19.85
2022-07-26T03:54:38.510Z,19.88
2022-07-26T03:57:06.209Z,19.92
2022-07-26T03:59:33.787Z,19.98
2022-07-26T04:02:01.463Z,20.01
2022-07-26T04:04:29.332Z,20.06
2022-07-26T04:06:57.086Z,20.07
2022-07-26T04:09:24.673Z,20.01
2022-07-26T04:11:52.278Z,20.00
2022-07-26T04:14:19.856Z,20.02
2022-07-26T04:16:48.320Z,20.00
2022-07-26T04:19:15.874Z,20.02
2022-07-26T04:21:43.414Z,20.04
2022-07-26T04:24:11.169Z,20.01
2022-07-26T04:26:39.188Z,19.97
2022-07-26T04:29:06.735Z,20.00
2022-07-26T04:31:36.489Z,19.99
2022-07-26T04:34:04.393Z,20.02
2022-07-26T04:36:32.187Z,20.03
2022-07-26T04:38:59.666Z,20.07
2022-07-26T04:41:27.260Z,20.06
2022-07-26T04:43:54.795Z,20.09
2022-07-26T04:46:22.463Z,20.11
2022-07-26T04:48:50.112Z,20.16
2022-07-26T04:51:17.745Z,20.18
2022-07-26T04:53:45.245Z,20.23
2022-07-26T04:56:13.136Z,20.21
2022-07-26T04:58:40.616Z,20.29
2022-07-26T05:01:10.616Z,20.32
2022-07-26T05:03:39.644Z,20.36
2022-07-26T05:06:07.670Z,20.37
2022-07-26T05:08:35.269Z,20.36
2022-07-26T05:11:04.342Z,20.40
2022-07-26T05:13:31.920Z,20.49
2022-07-26T05:16:00.929Z,20.57
2022-07-26T05:18:31.579Z,20.55
2022-07-26T05:20:59.816Z,20.61
2022-07-26T05:23:27.414Z,20.64
2022-07-26T05:25:55.618Z,20.72
2022-07-26T05:28:41.372Z,20.88
2022-07-26T05:31:09.150Z,20.90
2022-07-26T05:33:36.626Z,21.02
2022-07-26T05:36:04.515Z,21.07
2022-07-26T05:38:32.031Z,21.15
2022-07-26T05:40:59.706Z,21.23
2022-07-26T05:43:27.761Z,21.28
2022-07-26T05:46:10.114Z,21.43
2022-07-26T05:48:39.122Z,21.50
2022-07-26T05:51:06.761Z,21.68
2022-07-26T05:53:35.041Z,21.83
2022-07-26T05:56:02.636Z,21.92
2022-07-26T05:58:30.212Z,22.00
2022-07-26T06:00:57.801Z,22.05
2022-07-26T06:03:26.075Z,22.02
2022-07-26T06:05:56.891Z,22.12
2022-07-26T06:08:26.067Z,22.23
2022-07-26T06:10:54.383Z,22.36
2022-07-26T06:13:22.899Z,22.42
2022-07-26T06:15:50.751Z,22.49
2022-07-26T06:18:18.451Z,22.52
2022-07-26T06:20:47.766Z,22.70
2022-07-26T06:23:15.451Z,22.85
2022-07-26T06:25:42.968Z,22.99
2022-07-26T06:28:11.291Z,23.16
2022-07-26T06:30:39.696Z,23.20
2022-07-26T06:33:08.761Z,23.24
2022-07-26T06:35:39.139Z,23.54
2022-07-26T06:38:07.030Z,23.68
2022-07-26T06:40:34.986Z,23.95
2022-07-26T06:43:04.780Z,23.89
2022-07-26T06:45:34.158Z,23.95
2022-07-26T06:48:01.923Z,23.88
2022-07-26T06:50:29.503Z,24.28
2022-07-26T06:52:57.102Z,24.40
2022-07-26T06:55:24.645Z,24.52
2022-07-26T06:57:52.230Z,24.82
2022-07-26T07:00:20.035Z,24.87
2022-07-26T07:02:47.591Z,25.07
2022-07-26T07:05:15.389Z,25.09
2022-07-26T07:07:42.994Z,25.09
2022-07-26T07:10:11.142Z,24.89
2022-07-26T07:12:41.673Z,24.57
2022-07-26T07:15:09.895Z,24.61
2022-07-26T07:17:37.811Z,24.76
2022-07-26T07:20:06.159Z,24.84
2022-07-26T07:22:33.701Z,25.04
2022-07-26T07:25:01.318Z,25.21
2022-07-26T07:27:30.696Z,25.12
2022-07-26T07:29:58.190Z,25.25
2022-07-26T07:32:25.807Z,25.40
2022-07-26T07:34:54.020Z,25.28
2022-07-26T07:37:21.722Z,25.34
2022-07-26T07:39:50.664Z,25.42
2022-07-26T07:42:20.275Z,25.51
2022-07-26T07:44:48.106Z,25.70
2022-07-26T07:47:15.826Z,25.64
2022-07-26T07:49:43.600Z,25.66
2022-07-26T07:52:11.200Z,25.70
2022-07-26T07:54:38.907Z,26.19
2022-07-26T07:57:06.592Z,26.27
2022-07-26T07:59:34.146Z,26.30
2022-07-26T08:02:07.232Z,26.49
2022-07-26T08:04:34.968Z,26.47
2022-07-26T08:07:02.657Z,26.26
2022-07-26T08:09:30.220Z,26.00
2022-07-26T08:12:02.356Z,26.10
2022-07-26T08:14:30.258Z,26.66
2022-07-26T08:16:57.903Z,27.51
2022-07-26T08:19:28.203Z,27.91
2022-07-26T08:22:10.585Z,27.53
2022-07-26T08:24:38.398Z,27.30
2022-07-26T08:27:05.935Z,27.06
2022-07-26T08:29:33.404Z,26.42
2022-07-26T08:32:01.035Z,25.92
2022-07-26T08:34:28.618Z,25.47
2022-07-26T08:37:15.922Z,25.45
2022-07-26T08:39:43.786Z,25.43
2022-07-26T08:42:22.737Z,25.23
2022-07-26T08:44:52.148Z,25.21
2022-07-26T08:47:35.329Z,25.12
2022-07-26T08:50:08.362Z,25.02
2022-07-26T08:52:40.071Z,24.93
2022-07-26T08:55:07.964Z,24.74
2022-07-26T08:57:35.459Z,24.77
2022-07-26T09:00:26.214Z,24.47
2022-07-26T09:02:53.969Z,24.76
2022-07-26T09:05:31.934Z,25.45
2022-07-26T09:08:00.178Z,26.42
2022-07-26T09:10:28.396Z,27.22
2022-07-26T09:12:57.899Z,27.79
2022-07-26T09:15:27.677Z,28.07
2022-07-26T09:17:57.838Z,27.89
2022-07-26T09:20:30.987Z,27.30
2022-07-26T09:23:02.171Z,26.76
2022-07-26T09:25:38.634Z,26.26
2022-07-26T09:28:35.318Z,25.90
2022-07-26T09:31:05.377Z,25.82
2022-07-26T09:33:48.385Z,26.00
2022-07-26T09:36:16.597Z,26.68
2022-07-26T09:38:53.068Z,26.87
2022-07-26T09:41:28.408Z,26.57
2022-07-26T09:43:58.894Z,26.33
2022-07-26T09:46:28.490Z,26.29
2022-07-26T09:49:12.927Z,26.14
2022-07-26T09:51:43.243Z,25.80
2022-07-26T09:54:12.891Z,25.90
2022-07-26T09:56:51.099Z,25.73
2022-07-26T09:59:21.892Z,26.04
2022-07-26T10:01:52.276Z,26.41
2022-07-26T10:04:21.250Z,26.79
2022-07-26T10:06:48.736Z,26.39
2022-07-26T10:09:18.705Z,25.58
2022-07-26T10:11:49.614Z,25.53
2022-07-26T10:14:37.773Z,25.78
2022-07-26T10:17:31.772Z,26.81
2022-07-26T10:20:16.973Z,28.16
2022-07-26T10:22:48.276Z,29.14
2022-07-26T10:25:18.869Z,29.43
2022-07-26T10:27:58.103Z,29.14
2022-07-26T10:30:33.944Z,28.52
2022-07-26T10:33:23.867Z,28.33
2022-07-26T10:35:51.549Z,27.89
2022-07-26T10:38:24.590Z,27.82
2022-07-26T10:41:03.243Z,28.28
2022-07-26T10:43:41.173Z,28.30
2022-07-26T10:46:18.936Z,27.77
2022-07-26T10:49:09.069Z,26.97
2022-07-26T10:51:41.224Z,26.36
2022-07-26T10:54:11.199Z,26.50
2022-07-26T10:56:39.989Z,26.35
2022-07-26T10:59:07.686Z,26.41
2022-07-26T11:01:36.365Z,26.61
2022-07-26T11:04:04.511Z,26.33
2022-07-26T11:06:32.841Z,26.30
2022-07-26T11:09:10.291Z,26.79
2022-07-26T11:11:37.996Z,27.66
2022-07-26T11:14:10.144Z,28.56
2022-07-26T11:16:43.774Z,28.42
2022-07-26T11:19:26.184Z,28.20
2022-07-26T11:21:56.526Z,28.16
2022-07-26T11:24:24.114Z,28.27
2022-07-26T11:26:51.962Z,27.96
2022-07-26T11:29:38.837Z,28.58
2022-07-26T11:32:25.432Z,28.87
2022-07-26T11:35:04.945Z,28.90
2022-07-26T11:37:32.518Z,28.42
2022-07-26T11:39:59.985Z,27.63
2022-07-26T11:42:27.609Z,27.11
2022-07-26T11:44:55.198Z,26.42
2022-07-26T11:47:25.454Z,26.19
2022-07-26T11:50:21.905Z,26.36
2022-07-26T11:52:42.346Z,27.02
2022-07-26T11:55:10.233Z,27.60
2022-07-26T11:57:37.962Z,28.49
2022-07-26T12:00:06.550Z,28.85
2022-07-26T12:02:43.375Z,28.17
2022-07-26T12:05:16.155Z,27.89
2022-07-26T12:07:59.015Z,26.89
2022-07-26T12:10:27.662Z,26.57
2022-07-26T12:13:13.656Z,26.27
2022-07-26T12:15:52.765Z,26.30
2022-07-26T12:18:24.665Z,26.10
2022-07-26T12:21:08.329Z,26.07
2022-07-26T12:23:53.261Z,26.84
2022-07-26T12:26:26.764Z,27.63
2022-07-26T12:28:55.768Z,27.64
2022-07-26T12:31:31.361Z,27.48
2022-07-26T12:33:59.642Z,27.35
2022-07-26T12:36:29.557Z,27.34
2022-07-26T12:39:13.441Z,27.99
2022-07-26T12:41:52.626Z,28.64
2022-07-26T12:44:23.074Z,28.99
2022-07-26T12:46:50.625Z,29.12
2022-07-26T12:49:18.655Z,28.95
2022-07-26T12:51:46.535Z,29.03
2022-07-26T12:54:14.402Z,29.23
2022-07-26T12:56:42.318Z,28.91
2022-07-26T12:59:12.386Z,28.47
2022-07-26T13:01:45.719Z,28.05
2022-07-26T13:04:13.758Z,27.71
2022-07-26T13:06:41.676Z,27.50
2022-07-26T13:09:09.102Z,27.76
2022-07-26T13:11:36.952Z,27.35
2022-07-26T13:14:04.392Z,27.52
2022-07-26T13:16:31.939Z,28.06
2022-07-26T13:18:59.547Z,28.11
2022-07-26T13:21:27.095Z,28.45
2022-07-26T13:24:01.512Z,28.51
2022-07-26T13:26:28.997Z,28.79
2022-07-26T13:28:57.735Z,29.01
2022-07-26T13:31:25.322Z,28.80
2022-07-26T13:33:52.917Z,28.42
2022-07-26T13:36:20.382Z,28.07
2022-07-26T13:38:47.887Z,27.62
2022-07-26T13:41:15.397Z,27.20
2022-07-26T13:43:43.139Z,26.25
2022-07-26T13:46:10.772Z,25.81
2022-07-26T13:48:48.126Z,25.71
2022-07-26T13:51:45.251Z,25.94
2022-07-26T13:54:17.950Z,25.92
2022-07-26T13:56:46.586Z,26.01
2022-07-26T13:59:14.222Z,26.16
2022-07-26T14:01:44.806Z,26.03
2022-07-26T14:04:13.896Z,25.71
2022-07-26T14:06:42.254Z,25.59
2022-07-26T14:09:11.119Z,25.75
2022-07-26T14:12:22.265Z,25.88
2022-07-26T14:14:49.826Z,25.74
2022-07-26T14:17:17.285Z,25.34
2022-07-26T14:19:44.874Z,25.06
2022-07-26T14:22:13.660Z,24.86
2022-07-26T14:24:41.226Z,25.01
2022-07-26T14:27:08.931Z,25.29
2022-07-26T14:29:37.609Z,25.82
2022-07-26T14:32:05.594Z,26.18
2022-07-26T14:34:33.208Z,26.43
2022-07-26T14:37:00.714Z,25.92
2022-07-26T14:39:36.106Z,26.00
2022-07-26T14:42:03.920Z,26.48
2022-07-26T14:44:31.500Z,26.73
2022-07-26T14:46:59.020Z,26.82
2022-07-26T14:49:27.923Z,26.63
2022-07-26T14:51:55.616Z,26.35
2022-07-26T14:54:23.197Z,26.36
2022-07-26T14:56:50.699Z,26.56
2022-07-26T14:59:18.224Z,26.25
2022-07-26T15:01:46.113Z,26.10
2022-07-26T15:04:13.984Z,26.01
2022-07-26T15:06:41.899Z,26.13
2022-07-26T15:09:09.549Z,26.19
2022-07-26T15:11:37.099Z,26.12
2022-07-26T15:14:15.641Z,26.05
2022-07-26T15:16:56.938Z,25.92
2022-07-26T15:19:25.875Z,25.77
2022-07-26T15:21:55.325Z,25.75
2022-07-26T15:24:23.077Z,25.63
2022-07-26T15:26:51.841Z,25.46
2022-07-26T15:29:19.379Z,25.68
2022-07-26T15:31:48.898Z,25.44
2022-07-26T15:34:16.865Z,25.20
2022-07-26T15:36:50.319Z,25.06
2022-07-26T15:39:18.417Z,25.00
2022-07-26T15:41:47.749Z,24.94
2022-07-26T15:44:21.671Z,25.12
2022-07-26T15:46:51.309Z,25.25
2022-07-26T15:49:19.116Z,25.08
2022-07-26T15:51:47.069Z,25.16
2022-07-26T15:54:16.571Z,25.23
2022-07-26T15:56:44.720Z,25.13
2022-07-26T15:59:12.625Z,25.03
2022-07-26T16:01:40.258Z,24.84
2022-07-26T16:04:07.849Z,24.78
2022-07-26T16:06:36.124Z,24.71
2022-07-26T16:09:19.946Z,24.63
2022-07-26T16:11:48.491Z,24.57
2022-07-26T16:14:16.874Z,24.57
2022-07-26T16:16:45.564Z,24.67
2022-07-26T16:19:13.989Z,24.56
2022-07-26T16:21:41.854Z,24.24
2022-07-26T16:24:09.396Z,23.88
2022-07-26T16:26:37.039Z,23.56
2022-07-26T16:29:04.840Z,23.55
2022-07-26T16:31:33.439Z,23.50
2022-07-26T16:34:01.071Z,23.28
2022-07-26T16:36:29.606Z,23.10
2022-07-26T16:38:57.078Z,23.05
2022-07-26T16:41:24.754Z,23.13
2022-07-26T16:43:52.429Z,22.97
2022-07-26T16:46:19.999Z,22.87
2022-07-26T16:48:47.745Z,22.78
2022-07-26T16:51:16.810Z,22.94
2022-07-26T16:53:45.488Z,22.95
2022-07-26T16:56:13.774Z,22.85
2022-07-26T16:58:41.799Z,22.87
2022-07-26T17:01:09.542Z,22.71
2022-07-26T17:03:37.130Z,22.31
2022-07-26T17:06:06.857Z,22.14
2022-07-26T17:08:35.007Z,22.14
2022-07-26T17:11:02.669Z,22.26
2022-07-26T17:13:30.288Z,22.20
2022-07-26T17:15:57.807Z,22.21
2022-07-26T17:18:26.205Z,22.19
2022-07-26T17:20:53.698Z,22.40
2022-07-26T17:23:21.377Z,22.45
2022-07-26T17:25:48.937Z,22.42
2022-07-26T17:28:17.335Z,22.02
2022-07-26T17:30:44.813Z,21.87
2022-07-26T17:33:12.456Z,21.76
2022-07-26T17:35:40.010Z,21.61
2022-07-26T17:38:07.574Z,21.70
2022-07-26T17:40:35.408Z,21.73
2022-07-26T17:43:04.178Z,21.88
2022-07-26T17:45:31.655Z,21.87
2022-07-26T17:48:03.122Z,21.97
2022-07-26T17:50:37.091Z,21.94
2022-07-26T17:53:05.889Z,21.77
2022-07-26T17:55:33.821Z,21.79
2022-07-26T17:58:01.467Z,21.75
2022-07-26T18:00:29.612Z,21.70
2022-07-26T18:02:58.035Z,21.63
2022-07-26T18:05:33.088Z,21.61
2022-07-26T18:08:01.838Z,21.61
2022-07-26T18:10:29.376Z,21.57
2022-07-26T18:12:56.919Z,21.59
2022-07-26T18:15:24.493Z,21.51
2022-07-26T18:17:52.043Z,21.42
2022-07-26T18:20:19.610Z,21.38
2022-07-26T18:22:50.013Z,21.39
2022-07-26T18:25:18.125Z,21.32
2022-07-26T18:27:45.676Z,21.27
2022-07-26T18:30:13.617Z,21.20
2022-07-26T18:32:41.093Z,21.15
2022-07-26T18:35:08.789Z,21.10
2022-07-26T18:37:36.396Z,20.96
2022-07-26T18:40:05.421Z,20.99
2022-07-26T18:42:32.976Z,20.89
2022-07-26T18:45:00.582Z,20.90
2022-07-26T18:47:28.364Z,20.85
2022-07-26T18:49:55.946Z,20.85
2022-07-26T18:52:32.096Z,20.82
2022-07-26T18:55:07.081Z,20.72
2022-07-26T18:57:39.137Z,20.71
2022-07-26T19:00:17.186Z,20.70
2022-07-26T19:02:46.837Z,20.61
2022-07-26T19:05:16.927Z,20.67
2022-07-26T19:07:45.908Z,20.72
2022-07-26T19:10:15.234Z,20.63
2022-07-26T19:12:45.545Z,20.61
2022-07-26T19:15:17.057Z,20.58
2022-07-26T19:17:45.024Z,20.56
2022-07-26T19:20:13.436Z,20.48
2022-07-26T19:22:41.762Z,20.45
2022-07-26T19:25:11.034Z,20.44
2022-07-26T19:27:39.112Z,20.35
2022-07-26T19:30:09.307Z,20.31
2022-07-26T19:32:38.052Z,20.27
2022-07-26T19:35:06.694Z,20.19
2022-07-26T19:37:34.437Z,20.16
2022-07-26T19:40:03.929Z,20.11
2022-07-26T19:42:32.301Z,20.08
2022-07-26T19:45:00.541Z,20.11
2022-07-26T19:47:30.038Z,20.12
2022-07-26T19:49:58.932Z,20.05
2022-07-26T19:52:26.617Z,19.99
2022-07-26T19:54:54.533Z,19.98
2022-07-26T19:57:22.386Z,19.96
2022-07-26T19:59:50.477Z,19.89
2022-07-26T20:02:18.219Z,19.85
2022-07-26T20:04:46.445Z,19.78
2022-07-26T20:07:19.642Z,19.70
2022-07-26T20:09:49.315Z,19.69
2022-07-26T20:12:18.575Z,19.63
2022-07-26T20:14:46.662Z,19.60
2022-07-26T20:17:15.422Z,19.49
2022-07-26T20:19:43.192Z,19.44
2022-07-26T20:22:11.382Z,19.39
2022-07-26T20:24:40.441Z,19.30
2022-07-26T20:27:08.441Z,19.26
2022-07-26T20:29:36.432Z,19.28
2022-07-26T20:32:04.232Z,19.22
2022-07-26T20:34:31.891Z,19.17
2022-07-26T20:36:59.386Z,19.18
2022-07-26T20:39:28.003Z,19.19
2022-07-26T20:41:55.541Z,19.14
2022-07-26T20:44:28.217Z,19.15
2022-07-26T20:46:56.225Z,19.13
2022-07-26T20:49:23.934Z,19.13
2022-07-26T20:51:51.578Z,19.11
2022-07-26T20:54:19.135Z,19.07
2022-07-26T20:56:46.746Z,19.04
2022-07-26T20:59:14.714Z,19.05
2022-07-26T21:01:43.930Z,19.06
2022-07-26T21:04:12.129Z,19.06
2022-07-26T21:06:39.691Z,19.05
2022-07-26T21:09:08.751Z,19.03
2022-07-26T21:11:39.025Z,18.99
2022-07-26T21:14:07.035Z,18.94
2022-07-26T21:16:34.929Z,18.90
2022-07-26T21:19:04.016Z,18.86
2022-07-26T21:21:31.601Z,18.84
2022-07-26T21:23:59.086Z,18.79
2022-07-26T21:26:26.736Z,18.77
2022-07-26T21:28:54.183Z,18.75
2022-07-26T21:31:21.875Z,18.74
2022-07-26T21:33:49.625Z,18.74
2022-07-26T21:36:17.250Z,18.70
2022-07-26T21:38:44.822Z,18.64
2022-07-26T21:41:13.472Z,18.61
2022-07-26T21:43:41.286Z,18.51
2022-07-26T21:46:12.677Z,18.45
2022-07-26T21:48:41.248Z,18.41
2022-07-26T21:51:08.908Z,18.39
2022-07-26T21:53:36.491Z,18.42
2022-07-26T21:56:05.792Z,18.43
2022-07-26T21:58:36.670Z,18.45
2022-07-26T22:01:11.241Z,18.48
2022-07-26T22:03:40.642Z,18.51
2022-07-26T22:06:09.209Z,18.54
2022-07-26T22:08:37.186Z,18.50
2022-07-26T22:11:05.435Z,18.51
2022-07-26T22:13:33.003Z,18.42
2022-07-26T22:16:00.714Z,18.42
2022-07-26T22:18:28.547Z,18.41
2022-07-26T22:20:56.648Z,18.42
2022-07-26T22:23:30.250Z,18.41
2022-07-26T22:25:59.856Z,18.45
2022-07-26T22:28:28.335Z,18.48
2022-07-26T22:30:56.114Z,18.49
2022-07-26T22:33:24.546Z,18.46
2022-07-26T22:35:52.964Z,18.48
2022-07-26T22:38:20.586Z,18.47
2022-07-26T22:40:48.192Z,18.47
2022-07-26T22:43:16.045Z,18.45
2022-07-26T22:45:43.797Z,18.41
2022-07-26T22:48:11.552Z,18.44
2022-07-26T22:50:39.320Z,18.44
2022-07-26T22:53:32.530Z,18.40
2022-07-26T22:56:00.047Z,18.38
2022-07-26T22:58:27.536Z,18.36
2022-07-26T23:00:55.152Z,18.35
2022-07-26T23:03:22.683Z,18.32
2022-07-26T23:05:52.247Z,18.33
2022-07-26T23:11:07.654Z,18.24
2022-07-26T23:13:35.204Z,18.21
2022-07-26T23:16:02.859Z,18.17
2022-07-26T23:18:31.786Z,18.13
2022-07-26T23:20:59.625Z,18.09
2022-07-26T23:23:29.353Z,18.06
2022-07-26T23:25:59.386Z,18.06
2022-07-26T23:28:37.666Z,18.06
2022-07-26T23:31:11.100Z,18.07
2022-07-26T23:33:53.369Z,18.05
2022-07-26T23:36:26.484Z,18.04
2022-07-26T23:38:55.848Z,18.06
2022-07-26T23:41:23.490Z,18.02
2022-07-26T23:43:51.981Z,17.98
2022-07-26T23:46:20.040Z,18.00
2022-07-26T23:48:48.133Z,18.01
2022-07-26T23:51:16.094Z,18.05
2022-07-26T23:53:43.753Z,18.06
2022-07-26T23:56:11.701Z,18.08
2022-07-26T23:58:39.460Z,18.06
